createdAt,value
2019-01-21T00:01:32.267Z,175.83
2019-01-21T00:04:01.954Z,160.10
2019-01-21T00:06:31.734Z,161.87
2019-01-21T00:09:01.481Z,158.33
2019-01-21T00:11:32.338Z,171.07
2019-01-21T00:14:02.075Z,167.37
2019-01-21T00:16:31.903Z,157.77
2019-01-21T00:19:01.636Z,170.90
2019-01-21T00:21:31.410Z,173.63
2019-01-21T00:24:01.106Z,171.27
2019-01-21T00:26:30.905Z,171.23
2019-01-21T00:29:00.595Z,156.60
2019-01-21T00:31:30.382Z,170.03
2019-01-21T00:34:00.181Z,172.50
2019-01-21T00:36:29.847Z,157.63
2019-01-21T00:38:59.515Z,171.73
2019-01-21T00:41:29.305Z,170.30
2019-01-21T00:43:59.002Z,176.33
2019-01-21T00:46:28.724Z,180.47
2019-01-21T00:48:58.413Z,188.40
2019-01-21T00:51:28.139Z,170.47
2019-01-21T00:53:57.828Z,180.87
2019-01-21T00:56:27.754Z,168.00
2019-01-21T00:58:57.580Z,173.20
2019-01-21T01:01:27.276Z,171.23
2019-01-21T01:03:56.957Z,174.20
2019-01-21T01:06:26.698Z,163.57
2019-01-21T01:08:56.384Z,178.53
2019-01-21T01:11:26.081Z,175.70
2019-01-21T01:13:55.777Z,174.63
2019-01-21T01:16:25.449Z,192.57
2019-01-21T01:18:55.153Z,176.33
2019-01-21T01:21:24.896Z,177.23
2019-01-21T01:23:54.606Z,200.43
2019-01-21T01:26:24.382Z,187.43
2019-01-21T01:28:54.045Z,172.03
2019-01-21T01:31:23.812Z,163.67
2019-01-21T01:33:53.531Z,174.47
2019-01-21T01:36:23.236Z,173.57
2019-01-21T01:38:52.913Z,177.13
2019-01-21T01:41:22.750Z,163.17
2019-01-21T01:43:52.554Z,162.10
2019-01-21T01:46:22.226Z,165.90
2019-01-21T01:48:51.924Z,170.77
2019-01-21T01:51:21.675Z,174.90
2019-01-21T01:53:51.401Z,159.93
2019-01-21T01:56:21.084Z,161.47
2019-01-21T01:58:50.873Z,179.70
2019-01-21T02:01:20.670Z,177.20
2019-01-21T02:03:50.442Z,182.90
2019-01-21T02:06:20.137Z,198.77
2019-01-21T02:08:49.877Z,189.67
2019-01-21T02:11:19.672Z,176.90
2019-01-21T02:13:49.436Z,168.07
2019-01-21T02:16:20.176Z,160.00
2019-01-21T02:18:49.861Z,168.77
2019-01-21T02:21:20.670Z,178.13
2019-01-21T02:23:51.888Z,178.27
2019-01-21T02:26:22.485Z,160.50
2019-01-21T02:28:55.733Z,154.90
2019-01-21T02:31:28.748Z,163.80
2019-01-21T02:34:01.776Z,152.93
2019-01-21T02:36:35.136Z,152.57
2019-01-21T02:39:08.085Z,156.43
2019-01-21T02:41:39.457Z,170.57
2019-01-21T02:44:12.397Z,148.40
2019-01-21T02:46:45.351Z,160.90
2019-01-21T02:49:18.382Z,148.33
2019-01-21T02:51:51.347Z,151.00
2019-01-21T02:54:24.464Z,155.63
2019-01-21T02:56:57.850Z,139.80
2019-01-21T02:59:30.839Z,149.03
2019-01-21T03:02:04.897Z,144.50
2019-01-21T03:04:38.112Z,145.83
2019-01-21T03:07:12.575Z,154.50
2019-01-21T03:09:45.551Z,148.10
2019-01-21T03:12:18.555Z,144.47
2019-01-21T03:14:51.561Z,152.70
2019-01-21T03:17:24.890Z,155.23
2019-01-21T03:19:57.864Z,140.77
2019-01-21T03:22:30.817Z,150.67
2019-01-21T03:25:03.813Z,143.57
2019-01-21T03:27:37.171Z,147.53
2019-01-21T03:30:10.184Z,147.67
2019-01-21T03:32:43.219Z,145.07
2019-01-21T03:35:16.244Z,140.37
2019-01-21T03:37:49.427Z,140.07
2019-01-21T03:40:22.413Z,138.40
2019-01-21T03:42:55.389Z,138.17
2019-01-21T03:45:28.363Z,139.57
2019-01-21T03:48:01.690Z,139.73
2019-01-21T03:50:35.002Z,133.80
2019-01-21T03:53:07.934Z,134.07
2019-01-21T03:55:37.666Z,135.87
2019-01-21T03:58:10.984Z,141.70
2019-01-21T04:00:43.972Z,143.23
2019-01-21T04:03:16.927Z,144.83
2019-01-21T04:05:49.866Z,141.63
2019-01-21T04:08:23.136Z,134.10
2019-01-21T04:10:56.071Z,142.60
2019-01-21T04:13:29.032Z,142.53
2019-01-21T04:16:04.774Z,145.87
2019-01-21T04:18:38.232Z,134.53
2019-01-21T04:21:11.206Z,143.47
2019-01-21T04:23:44.167Z,151.77
2019-01-21T04:26:17.108Z,133.47
2019-01-21T04:28:50.378Z,140.07
2019-01-21T04:31:23.338Z,134.03
2019-01-21T04:33:56.336Z,133.63
2019-01-21T04:36:29.278Z,145.67
2019-01-21T04:39:02.798Z,136.37
2019-01-21T04:41:35.888Z,138.53
2019-01-21T04:44:08.903Z,135.70
2019-01-21T04:46:41.962Z,142.77
2019-01-21T04:49:15.077Z,142.00
2019-01-21T04:51:48.094Z,147.37
2019-01-21T04:54:21.069Z,149.00
2019-01-21T04:56:54.051Z,152.17
2019-01-21T04:59:27.377Z,145.77
2019-01-21T05:02:00.451Z,149.77
2019-01-21T05:04:33.385Z,154.57
2019-01-21T05:07:06.417Z,142.03
2019-01-21T05:09:39.726Z,151.67
2019-01-21T05:12:12.680Z,147.77
2019-01-21T05:14:45.665Z,160.00
2019-01-21T05:17:18.684Z,144.80
2019-01-21T05:19:52.284Z,141.80
2019-01-21T05:22:25.221Z,147.57
2019-01-21T05:24:58.265Z,149.53
2019-01-21T05:27:31.200Z,146.23
2019-01-21T05:30:04.566Z,150.67
2019-01-21T05:32:37.646Z,144.47
2019-01-21T05:35:10.714Z,145.23
2019-01-21T05:37:43.684Z,141.03
2019-01-21T05:40:17.209Z,140.83
2019-01-21T05:42:50.290Z,146.20
2019-01-21T05:45:23.329Z,132.97
2019-01-21T05:47:56.298Z,137.93
2019-01-21T05:50:29.412Z,138.73
2019-01-21T05:53:02.488Z,147.90
2019-01-21T05:55:35.494Z,141.87
2019-01-21T05:58:08.459Z,140.90
2019-01-21T06:00:41.419Z,147.00
2019-01-21T06:03:14.474Z,143.13
2019-01-21T06:05:47.457Z,147.47
2019-01-21T06:08:20.484Z,143.13
2019-01-21T06:10:53.479Z,139.53
2019-01-21T06:13:26.527Z,133.83
2019-01-21T06:15:59.451Z,152.87
2019-01-21T06:18:32.493Z,132.47
2019-01-21T06:21:05.596Z,137.77
2019-01-21T06:23:38.582Z,141.60
2019-01-21T06:26:11.624Z,147.33
2019-01-21T06:28:44.566Z,133.60
2019-01-21T06:31:18.697Z,140.13
2019-01-21T06:33:51.738Z,141.20
2019-01-21T06:36:24.725Z,130.27
2019-01-21T06:38:57.843Z,143.00
2019-01-21T06:41:30.915Z,141.27
2019-01-21T06:44:03.844Z,150.30
2019-01-21T06:46:36.822Z,131.97
2019-01-21T06:49:09.786Z,146.20
2019-01-21T06:51:42.802Z,139.40
2019-01-21T06:54:15.782Z,143.97
2019-01-21T06:56:48.744Z,137.37
2019-01-21T06:59:21.732Z,138.57
2019-01-21T07:01:54.665Z,144.07
2019-01-21T07:04:27.682Z,144.87
2019-01-21T07:07:00.733Z,141.23
2019-01-21T07:09:33.687Z,138.40
2019-01-21T07:12:07.724Z,132.63
2019-01-21T07:14:40.704Z,149.03
2019-01-21T07:17:15.027Z,141.23
2019-01-21T07:19:48.113Z,138.73
2019-01-21T07:22:21.069Z,125.87
2019-01-21T07:24:54.045Z,127.10
2019-01-21T07:27:27.058Z,116.90
2019-01-21T07:30:00.106Z,130.53
2019-01-21T07:32:33.096Z,120.37
2019-01-21T07:35:06.247Z,132.83
2019-01-21T07:37:39.197Z,122.97
2019-01-21T07:40:12.229Z,133.83
2019-01-21T07:42:45.206Z,127.53
2019-01-21T07:45:18.154Z,129.27
2019-01-21T07:47:51.139Z,138.77
2019-01-21T07:50:24.094Z,138.97
2019-01-21T07:52:57.101Z,121.80
2019-01-21T07:55:30.180Z,134.10
2019-01-21T07:58:03.158Z,134.20
2019-01-21T08:00:36.138Z,124.57
2019-01-21T08:03:09.107Z,116.63
2019-01-21T08:05:42.090Z,117.67
2019-01-21T08:08:15.048Z,132.47
2019-01-21T08:10:48.003Z,115.77
2019-01-21T08:13:21.012Z,147.50
2019-01-21T08:15:54.032Z,128.13
2019-01-21T08:18:26.994Z,128.40
2019-01-21T08:20:59.978Z,132.90
2019-01-21T08:23:32.977Z,123.63
2019-01-21T08:26:05.940Z,125.07
2019-01-21T08:28:38.942Z,123.20
2019-01-21T08:31:11.942Z,126.87
2019-01-21T08:33:44.895Z,129.30
2019-01-21T08:36:17.877Z,123.83
2019-01-21T08:38:50.916Z,136.03
2019-01-21T08:41:23.908Z,140.30
2019-01-21T08:43:56.853Z,135.63
2019-01-21T08:46:29.814Z,133.13
2019-01-21T08:49:02.794Z,137.00
2019-01-21T08:51:35.864Z,143.80
2019-01-21T08:54:09.894Z,142.33
2019-01-21T08:56:43.017Z,139.43
2019-01-21T08:59:16.453Z,121.87
2019-01-21T09:01:49.494Z,135.40
2019-01-21T09:04:22.489Z,121.97
2019-01-21T09:07:00.680Z,128.97
2019-01-21T09:09:30.169Z,127.20
2019-01-21T09:12:03.160Z,122.30
2019-01-21T09:14:36.192Z,120.33
2019-01-21T09:17:09.184Z,120.93
2019-01-21T09:19:42.224Z,130.30
2019-01-21T09:22:15.274Z,118.50
2019-01-21T09:24:48.277Z,107.63
2019-01-21T09:27:21.246Z,105.33
2019-01-21T09:29:54.187Z,121.63
2019-01-21T09:32:27.176Z,118.03
2019-01-21T09:35:00.251Z,115.87
2019-01-21T09:37:33.273Z,117.00
2019-01-21T09:40:06.244Z,113.73
2019-01-21T09:42:39.186Z,115.90
2019-01-21T09:45:12.198Z,106.67
2019-01-21T09:47:41.469Z,115.40
2019-01-21T09:50:11.232Z,116.50
2019-01-21T09:52:40.953Z,114.00
2019-01-21T09:55:10.656Z,114.73
2019-01-21T09:57:40.447Z,109.77
2019-01-21T10:00:13.506Z,111.27
2019-01-21T10:02:43.287Z,117.53
2019-01-21T10:05:14.175Z,106.63
2019-01-21T10:07:47.334Z,101.53
2019-01-21T10:10:20.364Z,108.47
2019-01-21T10:12:56.404Z,107.07
2019-01-21T10:15:30.148Z,97.50
2019-01-21T10:18:03.204Z,97.10
2019-01-21T10:20:36.304Z,106.70
2019-01-21T10:23:09.280Z,97.13
2019-01-21T10:25:42.327Z,101.93
2019-01-21T10:28:15.346Z,106.90
2019-01-21T10:30:49.411Z,96.27
2019-01-21T10:33:22.368Z,104.80
2019-01-21T10:35:55.337Z,100.03
2019-01-21T10:38:28.345Z,97.70
2019-01-21T10:41:01.408Z,99.77
2019-01-21T10:43:35.438Z,99.40
2019-01-21T10:46:08.485Z,97.43
2019-01-21T10:48:42.504Z,99.20
2019-01-21T10:51:15.473Z,95.03
2019-01-21T10:53:48.877Z,93.70
2019-01-21T10:56:21.788Z,104.10
2019-01-21T10:58:54.788Z,100.30
2019-01-21T11:01:27.756Z,101.60
2019-01-21T11:04:00.713Z,99.73
2019-01-21T11:06:34.758Z,100.37
2019-01-21T11:09:09.393Z,104.07
2019-01-21T11:11:42.492Z,108.10
2019-01-21T11:14:15.554Z,105.77
2019-01-21T11:16:48.594Z,112.83
2019-01-21T11:19:22.179Z,108.70
2019-01-21T11:21:55.217Z,114.77
2019-01-21T11:24:28.281Z,116.03
2019-01-21T11:27:01.236Z,104.20
2019-01-21T11:29:34.185Z,97.67
2019-01-21T11:32:07.236Z,110.03
2019-01-21T11:34:40.249Z,88.33
2019-01-21T11:37:13.252Z,107.50
2019-01-21T11:39:46.352Z,105.93
2019-01-21T11:42:19.314Z,98.30
2019-01-21T11:44:52.298Z,98.23
2019-01-21T11:47:25.226Z,103.63
2019-01-21T11:49:58.202Z,103.90
2019-01-21T11:52:31.181Z,106.73
2019-01-21T11:55:04.378Z,86.47
2019-01-21T11:57:37.628Z,94.67
2019-01-21T12:00:10.664Z,98.80
2019-01-21T12:02:43.659Z,87.83
2019-01-21T12:05:16.735Z,83.50
2019-01-21T12:07:49.774Z,87.63
2019-01-21T12:10:22.769Z,88.33
2019-01-21T12:12:55.718Z,88.43
2019-01-21T12:15:28.678Z,82.90
2019-01-21T12:18:01.697Z,80.03
2019-01-21T12:20:34.651Z,78.80
2019-01-21T12:23:07.642Z,85.47
2019-01-21T12:25:40.720Z,89.80
2019-01-21T12:28:13.774Z,86.70
2019-01-21T12:30:46.837Z,80.63
2019-01-21T12:33:19.935Z,79.77
2019-01-21T12:35:52.953Z,79.70
2019-01-21T12:38:25.918Z,81.23
2019-01-21T12:40:58.875Z,81.73
2019-01-21T12:43:32.077Z,78.33
2019-01-21T12:46:05.059Z,72.20
2019-01-21T12:48:38.197Z,79.27
2019-01-21T12:51:11.143Z,76.37
2019-01-21T12:53:44.099Z,85.20
2019-01-21T12:56:17.064Z,79.07
2019-01-21T12:58:50.962Z,81.47
2019-01-21T13:01:23.975Z,74.60
2019-01-21T13:03:56.990Z,72.27
2019-01-21T13:06:29.936Z,64.57
2019-01-21T13:09:03.074Z,68.03
2019-01-21T13:11:38.845Z,68.90
2019-01-21T13:14:11.891Z,61.97
2019-01-21T13:16:45.924Z,78.60
2019-01-21T13:19:18.927Z,70.40
2019-01-21T13:21:51.852Z,76.03
2019-01-21T13:24:24.831Z,75.70
2019-01-21T13:26:57.822Z,66.97
2019-01-21T13:29:30.849Z,76.00
2019-01-21T13:32:03.841Z,69.60
2019-01-21T13:34:36.884Z,44.87
2019-01-21T13:37:09.984Z,68.87
2019-01-21T13:39:45.654Z,66.03
2019-01-21T13:42:18.730Z,72.80
2019-01-21T13:44:51.697Z,74.73
2019-01-21T13:47:24.759Z,73.90
2019-01-21T13:49:57.704Z,68.40
2019-01-21T13:52:30.695Z,75.90
2019-01-21T13:55:03.624Z,61.33
2019-01-21T13:57:36.606Z,69.70
2019-01-21T14:00:09.986Z,64.93
2019-01-21T14:02:43.006Z,59.90
2019-01-21T14:05:16.060Z,64.03
2019-01-21T14:07:49.024Z,57.00
2019-01-21T14:10:22.066Z,62.33
2019-01-21T14:12:55.104Z,69.07
2019-01-21T14:15:28.121Z,69.50
2019-01-21T14:18:01.227Z,60.73
2019-01-21T14:20:34.264Z,56.43
2019-01-21T14:23:07.334Z,66.23
2019-01-21T14:25:40.304Z,72.43
2019-01-21T14:28:14.314Z,72.80
2019-01-21T14:30:47.273Z,80.17
2019-01-21T14:33:20.199Z,44.90
2019-01-21T14:35:53.265Z,72.03
2019-01-21T14:38:26.272Z,85.27
2019-01-21T14:40:59.276Z,85.00
2019-01-21T14:43:32.278Z,65.47
2019-01-21T14:46:05.270Z,86.87
2019-01-21T14:48:38.329Z,71.53
2019-01-21T14:51:11.273Z,76.00
2019-01-21T14:53:44.321Z,76.20
2019-01-21T14:56:20.444Z,74.47
2019-01-21T14:58:53.507Z,80.87
2019-01-21T15:01:30.420Z,81.80
2019-01-21T15:04:03.502Z,110.53
2019-01-21T15:06:36.567Z,96.87
2019-01-21T15:09:12.621Z,101.00
2019-01-21T15:11:45.680Z,83.57
2019-01-21T15:14:18.666Z,89.23
2019-01-21T15:16:51.842Z,98.23
2019-01-21T15:19:24.977Z,100.83
2019-01-21T15:21:58.006Z,108.57
2019-01-21T15:24:31.029Z,118.77
2019-01-21T15:27:04.307Z,126.30
2019-01-21T15:29:40.599Z,106.83
2019-01-21T15:32:15.324Z,121.83
2019-01-21T15:34:48.528Z,118.73
2019-01-21T15:37:34.897Z,124.03
2019-01-21T15:40:09.693Z,96.73
2019-01-21T15:42:42.711Z,105.97
2019-01-21T15:45:22.747Z,124.70
2019-01-21T15:47:58.704Z,118.33
2019-01-21T15:50:31.695Z,104.60
2019-01-21T15:53:04.608Z,133.47
2019-01-21T15:55:37.572Z,121.47
2019-01-21T15:58:18.770Z,126.40
2019-01-21T16:00:45.445Z,130.07
2019-01-21T16:03:18.442Z,135.50
2019-01-21T16:05:51.500Z,133.77
2019-01-21T16:08:24.790Z,135.67
2019-01-21T16:10:57.825Z,139.57
2019-01-21T16:13:30.891Z,122.83
2019-01-21T16:16:03.914Z,136.67
2019-01-21T16:18:36.916Z,100.27
2019-01-21T16:21:12.814Z,120.50
2019-01-21T16:23:44.681Z,118.30
2019-01-21T16:26:14.553Z,120.73
2019-01-21T16:28:47.625Z,118.30
2019-01-21T16:31:20.785Z,118.00
2019-01-21T16:33:53.932Z,112.43
2019-01-21T16:36:27.067Z,118.10
2019-01-21T16:39:00.370Z,124.20
2019-01-21T16:41:33.676Z,92.50
2019-01-21T16:44:03.596Z,117.30
2019-01-21T16:46:33.472Z,103.13
2019-01-21T16:49:03.221Z,123.63
2019-01-21T16:51:32.944Z,112.50
2019-01-21T16:54:02.701Z,113.47
2019-01-21T16:56:32.513Z,110.20
2019-01-21T16:59:02.537Z,107.00
2019-01-21T17:01:32.269Z,128.97
2019-01-21T17:04:02.074Z,124.20
2019-01-21T17:06:31.825Z,116.83
2019-01-21T17:09:01.522Z,116.23
2019-01-21T17:11:32.865Z,117.53
2019-01-21T17:14:02.671Z,127.87
2019-01-21T17:16:32.334Z,136.40
2019-01-21T17:19:02.041Z,139.97
2019-01-21T17:21:31.846Z,133.87
2019-01-21T17:24:01.675Z,114.77
2019-01-21T17:26:31.495Z,118.97
2019-01-21T17:29:01.314Z,134.70
2019-01-21T17:31:31.063Z,115.03
2019-01-21T17:34:00.934Z,114.60
2019-01-21T17:36:30.740Z,104.23
2019-01-21T17:39:00.466Z,95.77
2019-01-21T17:41:30.254Z,99.83
2019-01-21T17:43:59.967Z,105.93
2019-01-21T17:46:29.821Z,106.80
2019-01-21T17:49:00.875Z,107.73
2019-01-21T17:51:34.335Z,100.93
2019-01-21T17:54:04.854Z,114.20
2019-01-21T17:56:34.671Z,98.90
2019-01-21T17:59:04.590Z,101.50
2019-01-21T18:01:39.244Z,96.83
2019-01-21T18:04:05.787Z,87.50
2019-01-21T18:06:35.551Z,83.57
2019-01-21T18:09:08.120Z,82.93
2019-01-21T18:11:41.399Z,84.17
2019-01-21T18:14:09.745Z,88.07
2019-01-21T18:16:39.645Z,85.10
2019-01-21T18:19:09.520Z,96.93
2019-01-21T18:21:40.215Z,80.93
2019-01-21T18:24:10.400Z,92.80
2019-01-21T18:26:40.083Z,89.37
2019-01-21T18:29:09.895Z,93.73
2019-01-21T18:31:39.634Z,93.13
2019-01-21T18:34:09.365Z,90.23
2019-01-21T18:36:39.165Z,92.97
2019-01-21T18:39:10.644Z,104.40
2019-01-21T18:41:40.532Z,94.40
2019-01-21T18:44:11.381Z,96.80
2019-01-21T18:46:41.375Z,97.07
2019-01-21T18:49:11.262Z,96.77
2019-01-21T18:51:46.634Z,103.77
2019-01-21T18:54:12.834Z,94.53
2019-01-21T18:56:42.803Z,100.20
2019-01-21T18:59:12.615Z,97.20
2019-01-21T19:01:43.995Z,104.33
2019-01-21T19:04:13.823Z,116.30
2019-01-21T19:06:43.782Z,103.70
2019-01-21T19:09:13.662Z,100.20
2019-01-21T19:11:44.173Z,108.87
2019-01-21T19:14:15.374Z,102.57
2019-01-21T19:16:46.303Z,111.07
2019-01-21T19:19:16.469Z,111.10
2019-01-21T19:21:46.714Z,107.77
2019-01-21T19:24:16.724Z,104.73
2019-01-21T19:26:46.756Z,82.73
2019-01-21T19:29:16.764Z,84.20
2019-01-21T19:31:46.695Z,85.30
2019-01-21T19:34:16.634Z,82.50
2019-01-21T19:36:46.530Z,93.67
2019-01-21T19:39:16.335Z,95.07
2019-01-21T19:41:46.259Z,94.90
2019-01-21T19:44:16.032Z,96.27
2019-01-21T19:46:45.831Z,88.53
2019-01-21T19:49:15.661Z,79.83
2019-01-21T19:51:45.471Z,85.00
2019-01-21T19:54:15.264Z,77.77
2019-01-21T19:56:45.063Z,86.70
2019-01-21T19:59:15.123Z,76.73
2019-01-21T20:01:44.954Z,88.27
2019-01-21T20:04:14.763Z,88.27
2019-01-21T20:06:44.579Z,90.10
2019-01-21T20:09:14.363Z,79.53
2019-01-21T20:11:44.073Z,87.37
2019-01-21T20:14:13.913Z,82.20
2019-01-21T20:16:45.263Z,82.10
2019-01-21T20:19:15.303Z,81.83
2019-01-21T20:21:45.247Z,84.37
2019-01-21T20:24:15.483Z,86.53
2019-01-21T20:26:45.660Z,78.70
2019-01-21T20:29:19.084Z,85.37
2019-01-21T20:31:48.943Z,80.50
2019-01-21T20:34:18.687Z,83.60
2019-01-21T20:36:48.554Z,76.03
2019-01-21T20:39:18.333Z,74.67
2019-01-21T20:41:48.094Z,82.97
2019-01-21T20:44:17.925Z,75.23
2019-01-21T20:46:47.654Z,73.97
2019-01-21T20:49:18.590Z,78.10
2019-01-21T20:51:48.527Z,72.17
2019-01-21T20:54:18.293Z,79.67
2019-01-21T20:56:48.166Z,82.33
2019-01-21T20:59:18.083Z,64.27
2019-01-21T21:01:47.912Z,87.03
2019-01-21T21:04:17.923Z,86.80
2019-01-21T21:06:47.776Z,88.00
2019-01-21T21:09:17.910Z,61.40
2019-01-21T21:11:47.861Z,82.30
2019-01-21T21:14:17.672Z,90.43
2019-01-21T21:16:48.933Z,85.50
2019-01-21T21:19:19.864Z,88.13
2019-01-21T21:22:09.074Z,89.30
2019-01-21T21:24:38.944Z,83.03
2019-01-21T21:27:08.756Z,90.90
2019-01-21T21:29:38.775Z,80.20
2019-01-21T21:32:08.538Z,86.30
2019-01-21T21:34:38.400Z,73.00
2019-01-21T21:37:08.148Z,87.37
2019-01-21T21:39:37.911Z,75.90
2019-01-21T21:42:07.734Z,86.00
2019-01-21T21:44:37.612Z,88.70
2019-01-21T21:47:07.362Z,65.47
2019-01-21T21:49:37.126Z,89.73
2019-01-21T21:52:06.875Z,91.93
2019-01-21T21:54:36.790Z,81.70
2019-01-21T21:57:06.493Z,93.70
2019-01-21T21:59:36.310Z,90.90
2019-01-21T22:02:06.024Z,88.27
2019-01-21T22:04:35.833Z,88.80
2019-01-21T22:07:05.634Z,82.77
2019-01-21T22:09:35.462Z,82.57
2019-01-21T22:12:05.264Z,79.97
2019-01-21T22:14:35.185Z,83.87
2019-01-21T22:17:05.042Z,87.73
2019-01-21T22:19:34.902Z,85.67
2019-01-21T22:22:04.647Z,73.97
2019-01-21T22:24:34.528Z,80.83
2019-01-21T22:27:04.345Z,75.87
2019-01-21T22:29:34.012Z,74.47
2019-01-21T22:32:03.870Z,68.20
2019-01-21T22:34:33.568Z,81.83
2019-01-21T22:37:03.324Z,81.43
2019-01-21T22:39:33.100Z,76.63
2019-01-21T22:42:02.894Z,81.37
2019-01-21T22:44:35.712Z,80.27
2019-01-21T22:47:05.506Z,84.53
2019-01-21T22:49:35.220Z,86.33
2019-01-21T22:52:04.978Z,82.27
2019-01-21T22:54:34.807Z,84.17
2019-01-21T22:57:04.781Z,90.13
2019-01-21T22:59:34.460Z,82.17
2019-01-21T23:02:04.483Z,83.80
2019-01-21T23:04:34.257Z,82.07
2019-01-21T23:07:04.003Z,70.00
2019-01-21T23:09:33.923Z,68.27
2019-01-21T23:12:03.733Z,71.00
2019-01-21T23:14:33.514Z,71.53
2019-01-21T23:17:03.200Z,67.17
2019-01-21T23:19:33.057Z,73.00
2019-01-21T23:22:03.130Z,69.43
2019-01-21T23:24:34.023Z,72.90
2019-01-21T23:27:03.721Z,70.27
2019-01-21T23:29:33.577Z,73.03
2019-01-21T23:32:03.300Z,80.73
2019-01-21T23:34:34.114Z,69.53
2019-01-21T23:37:03.887Z,77.67
2019-01-21T23:39:33.664Z,77.67
2019-01-21T23:42:03.368Z,68.13
2019-01-21T23:44:33.128Z,67.83
2019-01-21T23:47:02.967Z,74.33
2019-01-21T23:49:32.754Z,74.00
2019-01-21T23:52:02.453Z,73.77
2019-01-21T23:54:32.277Z,72.50
2019-01-21T23:57:02.026Z,84.17
2019-01-21T23:59:32.169Z,77.27
